Terminal Aerodrome Forecast
Issued by NWS

Home | Current Version | Previous Version | Graphics & Text | Print | Product List | Glossary On
Versions: 1 2 3 4 5 6 7 8 9 10 11 12 13 14 15 16 17 18 19 20 21
000
FTUS43 KBIS 250000 AAA
TAFDIK
TAF AMD
KDIK 250017Z 2500/2524 12011KT P6SM -SN BKN007 OVC060
      TEMPO 2500/2502 3SM -SN SCT007 OVC025
     FM250200 13008KT 3SM -SN SCT009 OVC012
     FM250700 07011KT 3SM -SN BR OVC010
     FM251400 01016KT 2SM -SN BR OVC008
     FM251900 35015KT P6SM OVC020=

USA.gov is the U.S. government's official web portal to all federal, state and local government web resources and services.